createdAt,value
2022-11-13T00:00:54.493Z,10.20
2022-11-13T00:03:21.032Z,10.28
2022-11-13T00:05:47.524Z,10.30
2022-11-13T00:08:14.461Z,10.24
2022-11-13T00:10:41.004Z,10.30
2022-11-13T00:13:07.459Z,10.32
2022-11-13T00:15:33.839Z,10.33
2022-11-13T00:18:02.481Z,10.25
2022-11-13T00:20:28.957Z,10.32
2022-11-13T00:22:55.403Z,10.47
2022-11-13T00:25:22.137Z,10.47
2022-11-13T00:27:48.598Z,10.51
2022-11-13T00:30:19.297Z,10.70
2022-11-13T00:32:46.911Z,10.93
2022-11-13T00:35:13.415Z,10.98
2022-11-13T00:37:39.890Z,11.06
2022-11-13T00:40:06.678Z,11.14
2022-11-13T00:42:33.145Z,11.23
2022-11-13T00:44:59.559Z,10.87
2022-11-13T00:47:25.987Z,10.81
2022-11-13T00:49:52.394Z,10.89
2022-11-13T00:52:18.799Z,11.02
2022-11-13T00:54:45.219Z,10.63
2022-11-13T00:57:11.729Z,10.67
2022-11-13T00:59:38.139Z,10.81
2022-11-13T01:02:04.622Z,10.86
2022-11-13T01:04:31.164Z,10.76
2022-11-13T01:06:57.679Z,10.77
2022-11-13T01:09:24.111Z,10.76
2022-11-13T01:11:50.555Z,10.76
2022-11-13T01:14:17.048Z,10.75
2022-11-13T01:16:43.452Z,10.67
2022-11-13T01:19:09.859Z,10.48
2022-11-13T01:21:36.624Z,10.46
2022-11-13T01:24:03.069Z,10.58
2022-11-13T01:26:31.043Z,10.51
2022-11-13T01:29:00.134Z,10.50
2022-11-13T01:31:29.028Z,10.53
2022-11-13T01:33:55.963Z,10.43
2022-11-13T01:36:24.827Z,10.42
2022-11-13T01:38:51.822Z,10.30
2022-11-13T01:41:32.488Z,10.18
2022-11-13T01:43:59.955Z,10.21
2022-11-13T01:46:33.323Z,10.12
2022-11-13T01:49:27.500Z,10.08
2022-11-13T01:52:06.009Z,10.10
2022-11-13T01:54:35.598Z,10.23
2022-11-13T01:57:03.179Z,10.09
2022-11-13T01:59:34.834Z,10.05
2022-11-13T02:02:01.459Z,9.94
2022-11-13T02:04:29.134Z,9.99
2022-11-13T02:06:58.858Z,9.96
2022-11-13T02:09:28.066Z,10.13
2022-11-13T02:11:55.168Z,10.09
2022-11-13T02:14:23.689Z,10.07
2022-11-13T02:16:53.156Z,10.11
2022-11-13T02:19:24.445Z,10.11
2022-11-13T02:21:58.484Z,10.15
2022-11-13T02:24:28.364Z,10.16
2022-11-13T02:26:57.834Z,10.18
2022-11-13T02:29:24.298Z,10.14
2022-11-13T02:31:50.742Z,10.18
2022-11-13T02:34:17.147Z,10.18
2022-11-13T02:36:43.831Z,10.19
2022-11-13T02:39:12.682Z,10.17
2022-11-13T02:41:39.174Z,10.18
2022-11-13T02:44:08.877Z,10.18
2022-11-13T02:46:35.545Z,10.12
2022-11-13T02:49:01.980Z,10.02
2022-11-13T02:51:28.522Z,10.03
2022-11-13T02:53:55.091Z,10.14
2022-11-13T02:56:21.982Z,10.05
2022-11-13T02:58:48.408Z,10.09
2022-11-13T03:01:14.996Z,10.05
2022-11-13T03:03:56.991Z,9.87
2022-11-13T03:06:24.289Z,9.80
2022-11-13T03:08:50.671Z,9.74
2022-11-13T03:11:17.077Z,9.69
2022-11-13T03:13:43.456Z,9.70
2022-11-13T03:16:12.344Z,9.72
2022-11-13T03:18:38.794Z,9.74
2022-11-13T03:21:10.458Z,9.73
2022-11-13T03:23:37.073Z,9.78
2022-11-13T03:26:08.178Z,9.87
2022-11-13T03:28:35.637Z,9.73
2022-11-13T03:31:02.654Z,9.68
2022-11-13T03:33:29.437Z,9.72
2022-11-13T03:35:55.985Z,9.65
2022-11-13T03:38:22.627Z,9.65
2022-11-13T03:40:49.480Z,9.80
2022-11-13T03:43:15.952Z,9.66
2022-11-13T03:45:45.047Z,9.68
2022-11-13T03:48:11.865Z,9.56
2022-11-13T03:50:42.775Z,9.57
2022-11-13T03:53:12.145Z,9.65
2022-11-13T03:55:38.539Z,9.52
2022-11-13T03:58:05.006Z,9.65
2022-11-13T04:00:32.030Z,9.59
2022-11-13T04:02:58.405Z,9.65
2022-11-13T04:05:24.865Z,9.58
2022-11-13T04:07:51.279Z,9.64
2022-11-13T04:10:18.162Z,9.69
2022-11-13T04:12:44.638Z,9.70
2022-11-13T04:15:11.247Z,9.70
2022-11-13T04:17:37.709Z,9.72
2022-11-13T04:20:04.613Z,9.80
2022-11-13T04:22:31.022Z,9.68
2022-11-13T04:24:57.442Z,9.93
2022-11-13T04:27:24.016Z,10.08
2022-11-13T04:29:50.387Z,10.03
2022-11-13T04:32:16.913Z,10.06
2022-11-13T04:34:43.269Z,10.13
2022-11-13T04:37:09.721Z,10.16
2022-11-13T04:39:36.126Z,10.18
2022-11-13T04:42:21.222Z,10.05
2022-11-13T04:44:47.649Z,9.88
2022-11-13T04:47:14.078Z,9.68
2022-11-13T04:49:40.691Z,9.84
2022-11-13T04:52:07.279Z,9.81
2022-11-13T04:54:33.664Z,9.78
2022-11-13T04:57:00.070Z,9.68
2022-11-13T04:59:26.671Z,9.57
2022-11-13T05:01:53.229Z,9.41
2022-11-13T05:04:19.647Z,9.48
2022-11-13T05:06:46.081Z,9.56
2022-11-13T05:09:12.655Z,9.53
2022-11-13T05:11:39.077Z,9.57
2022-11-13T05:14:05.876Z,9.55
2022-11-13T05:16:32.440Z,9.50
2022-11-13T05:18:59.287Z,9.51
2022-11-13T05:21:25.892Z,9.38
2022-11-13T05:23:52.357Z,9.40
2022-11-13T05:26:18.859Z,9.44
2022-11-13T05:28:45.303Z,9.25
2022-11-13T05:31:13.995Z,9.19
2022-11-13T05:33:41.316Z,9.09
2022-11-13T05:36:10.630Z,9.09
2022-11-13T05:38:37.168Z,9.10
2022-11-13T05:41:09.176Z,9.14
2022-11-13T05:43:36.537Z,9.12
2022-11-13T05:46:08.032Z,8.92
2022-11-13T05:48:35.176Z,8.92
2022-11-13T05:51:07.031Z,9.05
2022-11-13T05:53:34.356Z,9.00
2022-11-13T05:56:10.073Z,9.09
2022-11-13T05:58:37.351Z,9.09
2022-11-13T06:01:12.755Z,9.11
2022-11-13T06:03:39.324Z,9.16
2022-11-13T06:06:07.429Z,9.25
2022-11-13T06:08:34.141Z,9.31
2022-11-13T06:11:02.269Z,9.22
2022-11-13T06:13:29.057Z,9.03
2022-11-13T06:16:00.872Z,9.17
2022-11-13T06:18:27.756Z,8.99
2022-11-13T06:20:54.566Z,8.91
2022-11-13T06:23:21.050Z,8.96
2022-11-13T06:25:47.553Z,8.89
2022-11-13T06:28:13.940Z,8.82
2022-11-13T06:30:40.372Z,8.89
2022-11-13T06:33:06.870Z,8.82
2022-11-13T06:35:33.404Z,8.68
2022-11-13T06:37:59.915Z,8.58
2022-11-13T06:40:27.210Z,8.43
2022-11-13T06:42:53.584Z,8.30
2022-11-13T06:45:20.077Z,8.25
2022-11-13T06:47:46.464Z,8.17
2022-11-13T06:50:12.926Z,8.21
2022-11-13T06:52:39.432Z,8.13
2022-11-13T06:55:06.073Z,8.21
2022-11-13T06:57:32.767Z,8.25
2022-11-13T06:59:59.169Z,8.32
2022-11-13T07:02:25.604Z,8.36
2022-11-13T07:04:51.987Z,8.32
2022-11-13T07:07:18.426Z,8.34
2022-11-13T07:09:44.958Z,8.39
2022-11-13T07:12:11.379Z,8.32
2022-11-13T07:14:37.912Z,8.31
2022-11-13T07:17:09.645Z,8.32
2022-11-13T07:19:36.876Z,8.50
2022-11-13T07:22:03.424Z,8.58
2022-11-13T07:24:29.821Z,8.70
2022-11-13T07:26:56.216Z,8.82
2022-11-13T07:29:22.600Z,9.00
2022-11-13T07:31:49.022Z,9.27
2022-11-13T07:34:15.400Z,9.38
2022-11-13T07:36:41.849Z,9.55
2022-11-13T07:39:08.315Z,9.54
2022-11-13T07:41:34.693Z,9.73
2022-11-13T07:44:03.375Z,9.74
2022-11-13T07:46:31.922Z,9.90
2022-11-13T07:48:58.313Z,9.97
2022-11-13T07:51:24.802Z,9.99
2022-11-13T07:53:51.176Z,10.11
2022-11-13T07:56:22.853Z,10.27
2022-11-13T07:58:49.717Z,10.44
2022-11-13T08:01:16.272Z,10.63
2022-11-13T08:03:42.703Z,10.78
2022-11-13T08:06:09.368Z,10.99
2022-11-13T08:08:35.799Z,11.18
2022-11-13T08:11:06.721Z,11.30
2022-11-13T08:13:34.317Z,11.38
2022-11-13T08:16:02.067Z,11.46
2022-11-13T08:18:29.927Z,11.52
2022-11-13T08:20:56.864Z,11.73
2022-11-13T08:23:23.295Z,11.84
2022-11-13T08:25:49.725Z,11.83
2022-11-13T08:28:16.327Z,11.85
2022-11-13T08:30:44.085Z,12.13
2022-11-13T08:33:10.631Z,12.36
2022-11-13T08:35:37.091Z,12.52
2022-11-13T08:38:05.138Z,12.47
2022-11-13T08:40:31.826Z,12.44
2022-11-13T08:43:02.724Z,12.37
2022-11-13T08:45:30.029Z,12.33
2022-11-13T08:48:01.274Z,12.31
2022-11-13T08:50:28.980Z,12.51
2022-11-13T08:52:59.626Z,12.38
2022-11-13T08:55:26.552Z,12.53
2022-11-13T08:57:53.118Z,12.58
2022-11-13T09:00:20.628Z,12.50
2022-11-13T09:02:47.036Z,12.48
2022-11-13T09:05:14.186Z,12.43
2022-11-13T09:07:40.594Z,12.37
2022-11-13T09:10:07.725Z,12.48
2022-11-13T09:12:34.185Z,12.49
2022-11-13T09:15:00.843Z,12.47
2022-11-13T09:17:27.261Z,12.58
2022-11-13T09:19:53.622Z,12.59
2022-11-13T09:22:20.131Z,12.66
2022-11-13T09:24:46.505Z,12.73
2022-11-13T09:27:13.160Z,12.78
2022-11-13T09:29:39.545Z,12.88
2022-11-13T09:32:05.942Z,12.87
2022-11-13T09:34:33.962Z,12.84
2022-11-13T09:37:00.645Z,13.07
2022-11-13T09:39:27.176Z,13.17
2022-11-13T09:41:59.885Z,13.24
2022-11-13T09:44:34.555Z,13.23
2022-11-13T09:47:09.274Z,13.31
2022-11-13T09:49:43.539Z,13.20
2022-11-13T09:52:13.733Z,13.36
2022-11-13T09:54:40.155Z,13.19
2022-11-13T09:57:23.055Z,13.40
2022-11-13T10:00:00.236Z,13.57
2022-11-13T10:03:05.063Z,13.52
2022-11-13T10:05:51.331Z,13.49
2022-11-13T10:08:57.604Z,13.40
2022-11-13T10:11:44.731Z,13.37
2022-11-13T10:14:37.073Z,13.32
2022-11-13T10:17:19.068Z,13.46
2022-11-13T10:20:23.985Z,13.70
2022-11-13T10:22:52.447Z,13.80
2022-11-13T10:25:21.144Z,13.91
2022-11-13T10:27:55.957Z,14.06
2022-11-13T10:30:22.623Z,14.25
2022-11-13T10:32:49.334Z,14.29
2022-11-13T10:35:27.911Z,14.38
2022-11-13T10:38:08.106Z,14.56
2022-11-13T10:40:39.930Z,14.51
2022-11-13T10:43:14.832Z,14.68
2022-11-13T10:46:00.379Z,14.88
2022-11-13T10:48:28.354Z,14.96
2022-11-13T10:51:00.632Z,14.92
2022-11-13T10:53:32.702Z,14.85
2022-11-13T10:55:59.528Z,14.97
2022-11-13T10:58:26.208Z,15.11
2022-11-13T11:00:53.204Z,15.18
2022-11-13T11:03:22.301Z,15.05
2022-11-13T11:06:00.063Z,14.88
2022-11-13T11:08:33.116Z,14.85
2022-11-13T11:11:20.108Z,14.93
2022-11-13T11:13:46.763Z,15.01
2022-11-13T11:16:18.835Z,15.13
2022-11-13T11:18:55.035Z,15.24
2022-11-13T11:21:25.822Z,15.38
2022-11-13T11:24:14.472Z,15.58
2022-11-13T11:26:44.186Z,15.83
2022-11-13T11:29:27.278Z,16.00
2022-11-13T11:32:05.372Z,16.47
2022-11-13T11:34:45.198Z,16.44
2022-11-13T11:37:16.898Z,16.60
2022-11-13T11:39:54.992Z,16.48
2022-11-13T11:42:36.786Z,16.28
2022-11-13T11:45:26.692Z,16.50
2022-11-13T11:47:53.818Z,16.52
2022-11-13T11:50:36.932Z,16.45
2022-11-13T11:53:14.227Z,16.45
2022-11-13T11:55:51.548Z,16.49
2022-11-13T11:58:28.731Z,16.79
2022-11-13T12:01:03.318Z,16.78
2022-11-13T12:03:59.079Z,16.62
2022-11-13T12:06:45.551Z,16.48
2022-11-13T12:09:27.822Z,16.76
2022-11-13T12:12:14.543Z,16.82
2022-11-13T12:14:51.154Z,16.78
2022-11-13T12:17:17.573Z,16.77
2022-11-13T12:19:58.813Z,16.89
2022-11-13T12:22:43.616Z,16.88
2022-11-13T12:25:29.402Z,16.86
2022-11-13T12:28:39.683Z,16.57
2022-11-13T12:31:40.860Z,16.01
2022-11-13T12:34:23.469Z,16.00
2022-11-13T12:36:50.384Z,16.21
2022-11-13T12:39:34.938Z,16.64
2022-11-13T12:42:16.778Z,16.76
2022-11-13T12:44:50.500Z,16.83
2022-11-13T12:47:17.761Z,16.90
2022-11-13T12:49:44.188Z,16.93
2022-11-13T12:52:23.943Z,16.92
2022-11-13T12:54:52.205Z,16.90
2022-11-13T12:57:30.161Z,16.80
2022-11-13T12:59:58.279Z,16.67
2022-11-13T13:02:43.412Z,16.90
2022-11-13T13:05:20.491Z,16.95
2022-11-13T13:07:53.788Z,16.92
2022-11-13T13:10:23.806Z,16.75
2022-11-13T13:13:13.609Z,16.64
2022-11-13T13:15:46.670Z,16.45
2022-11-13T13:18:29.600Z,16.60
2022-11-13T13:21:06.321Z,16.60
2022-11-13T13:23:40.481Z,16.69
2022-11-13T13:26:17.417Z,16.69
2022-11-13T13:28:57.207Z,16.79
2022-11-13T13:31:42.479Z,16.67
2022-11-13T13:34:18.663Z,16.51
2022-11-13T13:37:03.483Z,16.50
2022-11-13T13:39:45.140Z,16.25
2022-11-13T13:42:20.845Z,16.42
2022-11-13T13:44:59.294Z,16.13
2022-11-13T13:47:30.704Z,16.14
2022-11-13T13:50:01.398Z,16.14
2022-11-13T13:52:30.626Z,16.19
2022-11-13T13:54:57.957Z,16.00
2022-11-13T13:57:25.701Z,16.07
2022-11-13T13:59:52.207Z,16.02
2022-11-13T14:02:23.030Z,16.07
2022-11-13T14:04:52.042Z,15.85
2022-11-13T14:07:38.788Z,15.89
2022-11-13T14:10:18.607Z,15.90
2022-11-13T14:12:46.501Z,15.76
2022-11-13T14:15:29.372Z,15.77
2022-11-13T14:18:16.117Z,15.52
2022-11-13T14:20:49.877Z,15.57
2022-11-13T14:23:32.762Z,15.36
2022-11-13T14:25:59.526Z,15.23
2022-11-13T14:28:29.032Z,15.30
2022-11-13T14:30:58.384Z,15.33
2022-11-13T14:33:45.888Z,15.16
2022-11-13T14:36:12.921Z,14.92
2022-11-13T14:38:51.557Z,14.64
2022-11-13T14:41:26.390Z,14.78
2022-11-13T14:43:52.861Z,14.76
2022-11-13T14:46:37.135Z,14.67
2022-11-13T14:49:04.030Z,14.68
2022-11-13T14:51:32.461Z,14.66
2022-11-13T14:54:07.677Z,14.47
2022-11-13T14:56:43.582Z,14.27
2022-11-13T14:59:18.367Z,14.18
2022-11-13T15:01:56.356Z,14.03
2022-11-13T15:04:23.466Z,13.91
2022-11-13T15:06:53.485Z,13.87
2022-11-13T15:09:19.932Z,13.82
2022-11-13T15:11:46.365Z,13.80
2022-11-13T15:14:14.310Z,13.72
2022-11-13T15:16:40.996Z,13.61
2022-11-13T15:19:14.003Z,13.47
2022-11-13T15:21:40.885Z,13.25
2022-11-13T15:24:07.294Z,13.20
2022-11-13T15:26:33.696Z,13.14
2022-11-13T15:29:00.186Z,13.11
2022-11-13T15:31:30.832Z,13.01
2022-11-13T15:33:57.299Z,12.89
2022-11-13T15:36:23.728Z,12.72
2022-11-13T15:38:50.273Z,12.78
2022-11-13T15:41:19.747Z,12.94
2022-11-13T15:43:48.411Z,12.82
2022-11-13T15:46:17.823Z,12.70
2022-11-13T15:48:45.025Z,12.75
2022-11-13T15:51:23.613Z,12.82
2022-11-13T15:53:52.980Z,12.99
2022-11-13T15:56:19.897Z,12.86
2022-11-13T15:58:46.369Z,12.94
2022-11-13T16:01:14.558Z,13.04
2022-11-13T16:03:41.114Z,12.75
2022-11-13T16:06:13.292Z,12.74
2022-11-13T16:08:39.712Z,12.89
2022-11-13T16:11:06.373Z,13.04
2022-11-13T16:13:32.855Z,12.97
2022-11-13T16:15:59.864Z,13.14
2022-11-13T16:18:28.392Z,13.13
2022-11-13T16:20:54.984Z,13.06
2022-11-13T16:23:21.742Z,13.08
2022-11-13T16:25:49.326Z,13.38
2022-11-13T16:28:16.822Z,13.49
2022-11-13T16:30:43.586Z,13.06
2022-11-13T16:33:10.108Z,13.15
2022-11-13T16:35:36.769Z,13.26
2022-11-13T16:38:03.828Z,12.97
2022-11-13T16:40:30.827Z,13.06
2022-11-13T16:42:57.649Z,13.30
2022-11-13T16:45:24.242Z,13.07
2022-11-13T16:47:51.956Z,12.90
2022-11-13T16:50:24.141Z,12.89
2022-11-13T16:52:50.903Z,12.98
2022-11-13T16:55:17.343Z,12.93
2022-11-13T16:57:43.769Z,12.73
2022-11-13T17:00:13.955Z,12.89
2022-11-13T17:02:40.871Z,12.86
2022-11-13T17:05:10.198Z,12.85
2022-11-13T17:07:36.689Z,13.07
2022-11-13T17:10:33.409Z,13.28
2022-11-13T17:12:53.879Z,13.21
2022-11-13T17:15:21.007Z,12.96
2022-11-13T17:17:47.531Z,12.85
2022-11-13T17:20:15.467Z,12.92
2022-11-13T17:22:48.082Z,12.69
2022-11-13T17:25:18.428Z,12.93
2022-11-13T17:27:44.824Z,12.93
2022-11-13T17:30:12.448Z,13.07
2022-11-13T17:32:38.940Z,12.86
2022-11-13T17:35:06.099Z,12.96
2022-11-13T17:37:32.549Z,13.05
2022-11-13T17:39:58.959Z,13.19
2022-11-13T17:42:25.602Z,13.08
2022-11-13T17:44:51.988Z,12.99
2022-11-13T17:47:19.062Z,13.10
2022-11-13T17:49:45.563Z,13.23
2022-11-13T17:52:12.015Z,13.02
2022-11-13T17:54:38.450Z,12.97
2022-11-13T17:57:05.707Z,13.22
2022-11-13T17:59:32.098Z,13.17
2022-11-13T18:01:58.573Z,12.93
2022-11-13T18:04:24.977Z,13.21
2022-11-13T18:06:51.435Z,13.26
2022-11-13T18:09:17.991Z,13.20
2022-11-13T18:11:44.383Z,12.99
2022-11-13T18:14:10.784Z,13.19
2022-11-13T18:16:37.394Z,13.21
2022-11-13T18:19:06.862Z,13.27
2022-11-13T18:21:34.844Z,13.08
2022-11-13T18:24:13.033Z,13.22
2022-11-13T18:26:40.132Z,13.29
2022-11-13T18:29:07.035Z,13.30
2022-11-13T18:31:33.432Z,13.39
2022-11-13T18:34:01.683Z,13.60
2022-11-13T18:36:29.061Z,13.78
2022-11-13T18:38:55.628Z,13.32
2022-11-13T18:41:23.190Z,13.37
2022-11-13T18:43:51.656Z,13.14
2022-11-13T18:46:20.192Z,13.34
2022-11-13T18:48:47.766Z,12.91
2022-11-13T18:51:20.099Z,12.89
2022-11-13T18:53:50.383Z,12.94
2022-11-13T18:56:19.357Z,12.98
2022-11-13T18:58:47.773Z,12.84
2022-11-13T19:01:22.261Z,13.04
2022-11-13T19:04:15.952Z,12.83
2022-11-13T19:06:37.286Z,12.92
2022-11-13T19:09:10.232Z,12.76
2022-11-13T19:11:36.633Z,12.84
2022-11-13T19:14:03.134Z,12.93
2022-11-13T19:16:35.391Z,12.77
2022-11-13T19:19:07.926Z,12.84
2022-11-13T19:21:35.702Z,12.69
2022-11-13T19:24:02.682Z,12.74
2022-11-13T19:26:29.518Z,12.77
2022-11-13T19:28:56.010Z,12.82
2022-11-13T19:31:25.721Z,12.80
2022-11-13T19:34:00.414Z,12.74
2022-11-13T19:36:28.258Z,12.68
2022-11-13T19:38:55.762Z,12.55
2022-11-13T19:41:23.130Z,12.73
2022-11-13T19:43:49.743Z,12.85
2022-11-13T19:46:17.274Z,12.82
2022-11-13T19:48:44.698Z,12.83
2022-11-13T19:51:22.399Z,12.80
2022-11-13T19:53:56.049Z,12.94
2022-11-13T19:56:23.441Z,12.90
2022-11-13T19:58:50.736Z,12.90
2022-11-13T20:01:22.862Z,13.12
2022-11-13T20:03:57.300Z,12.81
2022-11-13T20:06:24.245Z,13.01
2022-11-13T20:08:50.783Z,13.15
2022-11-13T20:11:17.485Z,13.03
2022-11-13T20:13:44.049Z,13.27
2022-11-13T20:16:12.656Z,13.23
2022-11-13T20:18:39.437Z,13.02
2022-11-13T20:21:06.050Z,12.96
2022-11-13T20:23:33.097Z,13.14
2022-11-13T20:26:05.735Z,12.97
2022-11-13T20:28:32.525Z,13.23
2022-11-13T20:31:14.161Z,13.21
2022-11-13T20:33:40.577Z,13.24
2022-11-13T20:36:07.213Z,13.42
2022-11-13T20:38:33.620Z,13.45
2022-11-13T20:41:04.532Z,13.37
2022-11-13T20:43:31.154Z,13.28
2022-11-13T20:46:05.008Z,13.24
2022-11-13T20:48:32.005Z,13.30
2022-11-13T20:51:05.535Z,13.27
2022-11-13T20:53:31.976Z,13.25
2022-11-13T20:55:58.516Z,13.14
2022-11-13T20:58:25.112Z,13.27
2022-11-13T21:00:51.655Z,13.40
2022-11-13T21:03:18.110Z,13.19
2022-11-13T21:05:44.568Z,13.06
2022-11-13T21:08:11.517Z,13.27
2022-11-13T21:10:37.944Z,13.37
2022-11-13T21:13:04.450Z,13.47
2022-11-13T21:15:33.363Z,13.56
2022-11-13T21:17:59.848Z,13.43
2022-11-13T21:20:26.240Z,13.58
2022-11-13T21:22:52.657Z,13.50
2022-11-13T21:25:19.730Z,13.57
2022-11-13T21:27:46.159Z,13.82
2022-11-13T21:30:12.629Z,13.59
2022-11-13T21:32:39.471Z,13.70
2022-11-13T21:35:06.013Z,13.74
2022-11-13T21:37:33.856Z,13.87
2022-11-13T21:40:00.232Z,13.78
2022-11-13T21:42:26.849Z,13.76
2022-11-13T21:44:53.293Z,13.72
2022-11-13T21:47:19.717Z,13.77
2022-11-13T21:49:46.134Z,13.77
2022-11-13T21:52:12.583Z,13.76
2022-11-13T21:54:39.014Z,13.82
2022-11-13T21:57:05.437Z,13.79
2022-11-13T21:59:31.907Z,13.82
2022-11-13T22:01:59.114Z,13.78
2022-11-13T22:04:25.941Z,13.53
2022-11-13T22:06:52.689Z,13.72
2022-11-13T22:09:24.004Z,13.67
2022-11-13T22:11:50.611Z,13.76
2022-11-13T22:14:17.494Z,13.84
2022-11-13T22:16:46.233Z,13.81
2022-11-13T22:19:15.218Z,13.69
2022-11-13T22:21:42.095Z,13.62
2022-11-13T22:24:08.959Z,13.55
2022-11-13T22:26:45.125Z,13.57
2022-11-13T22:29:12.001Z,13.62
2022-11-13T22:31:39.043Z,13.57
2022-11-13T22:34:06.007Z,13.44
2022-11-13T22:36:34.711Z,13.49
2022-11-13T22:39:01.642Z,13.40
2022-11-13T22:41:31.132Z,13.43
2022-11-13T22:43:59.993Z,13.25
2022-11-13T22:46:28.512Z,13.31
2022-11-13T22:48:56.583Z,13.07
2022-11-13T22:51:28.443Z,13.06
2022-11-13T22:53:59.878Z,13.07
2022-11-13T22:56:28.954Z,13.08
2022-11-13T22:58:56.774Z,12.88
2022-11-13T23:01:25.640Z,12.90
2022-11-13T23:03:52.909Z,12.95
2022-11-13T23:06:24.395Z,13.01
2022-11-13T23:08:51.806Z,12.93
2022-11-13T23:11:20.774Z,12.89
2022-11-13T23:13:52.442Z,12.82
2022-11-13T23:16:19.147Z,12.84
2022-11-13T23:18:46.009Z,12.82
2022-11-13T23:21:13.349Z,12.70
2022-11-13T23:23:39.839Z,12.64
2022-11-13T23:26:06.992Z,12.52
2022-11-13T23:28:33.915Z,12.65
2022-11-13T23:31:00.299Z,12.52
2022-11-13T23:33:27.099Z,12.72
2022-11-13T23:35:53.513Z,12.82
2022-11-13T23:38:20.098Z,12.82
2022-11-13T23:40:46.541Z,12.75
2022-11-13T23:43:13.034Z,12.65
2022-11-13T23:45:39.454Z,12.83
2022-11-13T23:48:06.186Z,12.92
2022-11-13T23:50:32.605Z,13.06
2022-11-13T23:52:59.027Z,12.93
2022-11-13T23:55:26.158Z,12.99
2022-11-13T23:57:57.088Z,12.84
